sensor_id;sensor_type;location;lat;lon;timestamp;P1;durP1;ratioP1;P2;durP2;ratioP2
11964;SDS011;6042;41.326;19.826;2023-01-26T00:00:20;2.97;;;0.87;;
11964;SDS011;6042;41.326;19.826;2023-01-26T00:02:50;1.33;;;0.83;;
11964;SDS011;6042;41.326;19.826;2023-01-26T00:05:19;1.33;;;0.70;;
11964;SDS011;6042;41.326;19.826;2023-01-26T00:07:48;0.90;;;0.70;;
11964;SDS011;6042;41.326;19.826;2023-01-26T00:10:17;0.70;;;0.70;;
11964;SDS011;6042;41.326;19.826;2023-01-26T00:12:46;0.77;;;0.60;;
11964;SDS011;6042;41.326;19.826;2023-01-26T00:15:17;0.60;;;0.60;;
11964;SDS011;6042;41.326;19.826;2023-01-26T00:17:45;1.20;;;0.97;;
11964;SDS011;6042;41.326;19.826;2023-01-26T00:20:18;2.03;;;0.80;;
11964;SDS011;6042;41.326;19.826;2023-01-26T00:22:47;0.80;;;0.80;;
11964;SDS011;6042;41.326;19.826;2023-01-26T00:25:16;0.67;;;0.67;;
11964;SDS011;6042;41.326;19.826;2023-01-26T00:27:45;1.40;;;0.60;;
11964;SDS011;6042;41.326;19.826;2023-01-26T00:30:14;1.57;;;0.90;;
11964;SDS011;6042;41.326;19.826;2023-01-26T00:32:43;1.50;;;0.83;;
11964;SDS011;6042;41.326;19.826;2023-01-26T00:35:12;1.53;;;0.93;;
11964;SDS011;6042;41.326;19.826;2023-01-26T00:37:42;3.03;;;1.23;;
11964;SDS011;6042;41.326;19.826;2023-01-26T00:40:13;1.57;;;1.00;;
11964;SDS011;6042;41.326;19.826;2023-01-26T00:42:43;3.60;;;1.17;;
11964;SDS011;6042;41.326;19.826;2023-01-26T00:45:12;1.40;;;1.03;;
11964;SDS011;6042;41.326;19.826;2023-01-26T00:47:43;1.73;;;1.10;;
11964;SDS011;6042;41.326;19.826;2023-01-26T00:50:14;1.10;;;1.00;;
11964;SDS011;6042;41.326;19.826;2023-01-26T00:52:44;2.53;;;1.13;;
11964;SDS011;6042;41.326;19.826;2023-01-26T00:55:14;1.10;;;0.87;;
11964;SDS011;6042;41.326;19.826;2023-01-26T00:57:43;0.80;;;0.70;;
11964;SDS011;6042;41.326;19.826;2023-01-26T01:00:12;1.73;;;1.03;;
11964;SDS011;6042;41.326;19.826;2023-01-26T01:02:43;1.53;;;1.20;;
11964;SDS011;6042;41.326;19.826;2023-01-26T01:05:12;1.20;;;1.00;;
11964;SDS011;6042;41.326;19.826;2023-01-26T01:07:40;0.60;;;0.60;;
11964;SDS011;6042;41.326;19.826;2023-01-26T01:10:11;0.50;;;0.50;;
11964;SDS011;6042;41.326;19.826;2023-01-26T01:12:40;0.60;;;0.60;;
11964;SDS011;6042;41.326;19.826;2023-01-26T01:15:09;0.60;;;0.60;;
11964;SDS011;6042;41.326;19.826;2023-01-26T01:17:38;3.60;;;2.50;;
11964;SDS011;6042;41.326;19.826;2023-01-26T01:20:08;4.97;;;3.87;;
11964;SDS011;6042;41.326;19.826;2023-01-26T01:22:40;5.77;;;3.43;;
11964;SDS011;6042;41.326;19.826;2023-01-26T01:25:11;10.93;;;6.20;;
11964;SDS011;6042;41.326;19.826;2023-01-26T01:27:40;11.20;;;7.50;;
11964;SDS011;6042;41.326;19.826;2023-01-26T01:30:09;7.33;;;6.43;;
11964;SDS011;6042;41.326;19.826;2023-01-26T01:32:40;11.53;;;6.50;;
11964;SDS011;6042;41.326;19.826;2023-01-26T01:35:10;7.43;;;5.57;;
11964;SDS011;6042;41.326;19.826;2023-01-26T01:37:39;7.53;;;5.13;;
11964;SDS011;6042;41.326;19.826;2023-01-26T01:40:12;5.87;;;4.30;;
11964;SDS011;6042;41.326;19.826;2023-01-26T01:42:45;4.83;;;3.00;;
11964;SDS011;6042;41.326;19.826;2023-01-26T01:48:12;5.60;;;3.93;;
11964;SDS011;6042;41.326;19.826;2023-01-26T01:50:46;4.53;;;3.27;;
11964;SDS011;6042;41.326;19.826;2023-01-26T01:53:19;4.80;;;4.10;;
11964;SDS011;6042;41.326;19.826;2023-01-26T01:55:54;1.30;;;1.20;;
11964;SDS011;6042;41.326;19.826;2023-01-26T01:58:25;1.67;;;1.10;;
11964;SDS011;6042;41.326;19.826;2023-01-26T02:00:55;4.07;;;1.20;;
11964;SDS011;6042;41.326;19.826;2023-01-26T02:03:28;0.77;;;0.77;;
11964;SDS011;6042;41.326;19.826;2023-01-26T02:06:00;1.17;;;0.83;;
11964;SDS011;6042;41.326;19.826;2023-01-26T02:08:36;0.60;;;0.50;;
11964;SDS011;6042;41.326;19.826;2023-01-26T02:11:09;1.00;;;0.70;;
11964;SDS011;6042;41.326;19.826;2023-01-26T02:13:41;0.50;;;0.50;;
11964;SDS011;6042;41.326;19.826;2023-01-26T02:16:13;0.77;;;0.60;;
11964;SDS011;6042;41.326;19.826;2023-01-26T02:18:42;0.67;;;0.67;;
11964;SDS011;6042;41.326;19.826;2023-01-26T02:21:14;0.50;;;0.50;;
11964;SDS011;6042;41.326;19.826;2023-01-26T02:23:49;0.40;;;0.40;;
11964;SDS011;6042;41.326;19.826;2023-01-26T02:26:29;0.50;;;0.50;;
11964;SDS011;6042;41.326;19.826;2023-01-26T02:29:01;0.53;;;0.40;;
11964;SDS011;6042;41.326;19.826;2023-01-26T02:31:31;0.50;;;0.50;;
11964;SDS011;6042;41.326;19.826;2023-01-26T02:34:00;0.50;;;0.50;;
11964;SDS011;6042;41.326;19.826;2023-01-26T02:36:29;0.60;;;0.50;;
11964;SDS011;6042;41.326;19.826;2023-01-26T02:39:08;1.47;;;0.47;;
11964;SDS011;6042;41.326;19.826;2023-01-26T02:41:49;0.67;;;0.57;;
11964;SDS011;6042;41.326;19.826;2023-01-26T02:44:38;0.60;;;0.60;;
11964;SDS011;6042;41.326;19.826;2023-01-26T02:47:11;0.60;;;0.60;;
11964;SDS011;6042;41.326;19.826;2023-01-26T02:49:41;1.10;;;0.70;;
11964;SDS011;6042;41.326;19.826;2023-01-26T02:52:19;0.60;;;0.60;;
11964;SDS011;6042;41.326;19.826;2023-01-26T02:54:59;2.23;;;0.63;;
11964;SDS011;6042;41.326;19.826;2023-01-26T02:57:46;1.23;;;0.50;;
11964;SDS011;6042;41.326;19.826;2023-01-26T03:00:17;0.50;;;0.50;;
11964;SDS011;6042;41.326;19.826;2023-01-26T03:02:48;2.23;;;0.57;;
11964;SDS011;6042;41.326;19.826;2023-01-26T03:05:19;0.70;;;0.60;;
11964;SDS011;6042;41.326;19.826;2023-01-26T03:07:49;0.60;;;0.60;;
11964;SDS011;6042;41.326;19.826;2023-01-26T03:10:20;0.70;;;0.70;;
11964;SDS011;6042;41.326;19.826;2023-01-26T03:12:52;0.60;;;0.60;;
11964;SDS011;6042;41.326;19.826;2023-01-26T03:15:21;0.70;;;0.70;;
11964;SDS011;6042;41.326;19.826;2023-01-26T03:18:11;0.60;;;0.60;;
11964;SDS011;6042;41.326;19.826;2023-01-26T03:21:05;0.70;;;0.70;;
11964;SDS011;6042;41.326;19.826;2023-01-26T03:23:54;0.80;;;0.80;;
11964;SDS011;6042;41.326;19.826;2023-01-26T03:26:41;1.17;;;0.73;;
11964;SDS011;6042;41.326;19.826;2023-01-26T03:29:32;0.70;;;0.70;;
11964;SDS011;6042;41.326;19.826;2023-01-26T03:32:02;0.70;;;0.70;;
11964;SDS011;6042;41.326;19.826;2023-01-26T03:34:31;0.87;;;0.83;;
11964;SDS011;6042;41.326;19.826;2023-01-26T03:37:02;0.73;;;0.73;;
11964;SDS011;6042;41.326;19.826;2023-01-26T03:39:43;1.00;;;0.80;;
11964;SDS011;6042;41.326;19.826;2023-01-26T03:42:29;0.50;;;0.50;;
11964;SDS011;6042;41.326;19.826;2023-01-26T03:45:17;0.57;;;0.57;;
11964;SDS011;6042;41.326;19.826;2023-01-26T03:48:04;0.40;;;0.40;;
11964;SDS011;6042;41.326;19.826;2023-01-26T03:50:52;0.30;;;0.30;;
11964;SDS011;6042;41.326;19.826;2023-01-26T03:53:38;0.50;;;0.50;;
11964;SDS011;6042;41.326;19.826;2023-01-26T03:56:24;0.40;;;0.40;;
11964;SDS011;6042;41.326;19.826;2023-01-26T03:59:04;0.50;;;0.50;;
11964;SDS011;6042;41.326;19.826;2023-01-26T04:01:39;1.27;;;0.50;;
11964;SDS011;6042;41.326;19.826;2023-01-26T04:04:28;0.30;;;0.30;;
11964;SDS011;6042;41.326;19.826;2023-01-26T04:07:14;0.70;;;0.50;;
11964;SDS011;6042;41.326;19.826;2023-01-26T04:10:01;1.23;;;0.50;;
11964;SDS011;6042;41.326;19.826;2023-01-26T04:12:30;0.70;;;0.50;;
11964;SDS011;6042;41.326;19.826;2023-01-26T04:15:11;0.53;;;0.53;;
11964;SDS011;6042;41.326;19.826;2023-01-26T04:18:04;0.70;;;0.50;;
11964;SDS011;6042;41.326;19.826;2023-01-26T04:20:51;0.50;;;0.50;;
11964;SDS011;6042;41.326;19.826;2023-01-26T04:23:39;0.60;;;0.50;;
11964;SDS011;6042;41.326;19.826;2023-01-26T04:26:08;0.80;;;0.50;;
11964;SDS011;6042;41.326;19.826;2023-01-26T04:28:37;0.50;;;0.50;;
11964;SDS011;6042;41.326;19.826;2023-01-26T04:31:07;0.40;;;0.40;;
11964;SDS011;6042;41.326;19.826;2023-01-26T04:33:39;0.50;;;0.50;;
11964;SDS011;6042;41.326;19.826;2023-01-26T04:36:08;0.60;;;0.60;;
11964;SDS011;6042;41.326;19.826;2023-01-26T04:38:42;0.50;;;0.50;;
11964;SDS011;6042;41.326;19.826;2023-01-26T04:41:14;0.43;;;0.43;;
11964;SDS011;6042;41.326;19.826;2023-01-26T04:43:49;0.40;;;0.40;;
11964;SDS011;6042;41.326;19.826;2023-01-26T04:46:18;0.40;;;0.40;;
11964;SDS011;6042;41.326;19.826;2023-01-26T04:48:49;0.50;;;0.50;;
11964;SDS011;6042;41.326;19.826;2023-01-26T04:51:19;1.13;;;0.47;;
11964;SDS011;6042;41.326;19.826;2023-01-26T04:53:48;0.50;;;0.50;;
11964;SDS011;6042;41.326;19.826;2023-01-26T04:56:21;0.57;;;0.57;;
11964;SDS011;6042;41.326;19.826;2023-01-26T04:58:52;1.03;;;0.70;;
11964;SDS011;6042;41.326;19.826;2023-01-26T05:01:23;0.70;;;0.70;;
11964;SDS011;6042;41.326;19.826;2023-01-26T05:03:54;0.73;;;0.70;;
11964;SDS011;6042;41.326;19.826;2023-01-26T05:06:23;0.50;;;0.50;;
11964;SDS011;6042;41.326;19.826;2023-01-26T05:08:53;0.50;;;0.50;;
11964;SDS011;6042;41.326;19.826;2023-01-26T05:11:23;0.67;;;0.67;;
11964;SDS011;6042;41.326;19.826;2023-01-26T05:14:03;1.47;;;0.60;;
11964;SDS011;6042;41.326;19.826;2023-01-26T05:16:47;0.57;;;0.57;;
11964;SDS011;6042;41.326;19.826;2023-01-26T05:19:44;2.60;;;0.80;;
11964;SDS011;6042;41.326;19.826;2023-01-26T05:22:28;0.70;;;0.60;;
11964;SDS011;6042;41.326;19.826;2023-01-26T05:25:32;0.80;;;0.80;;
11964;SDS011;6042;41.326;19.826;2023-01-26T05:28:05;2.50;;;0.70;;
11964;SDS011;6042;41.326;19.826;2023-01-26T05:30:34;1.33;;;0.60;;
11964;SDS011;6042;41.326;19.826;2023-01-26T05:33:04;1.10;;;0.57;;
11964;SDS011;6042;41.326;19.826;2023-01-26T05:35:37;0.80;;;0.50;;
11964;SDS011;6042;41.326;19.826;2023-01-26T05:38:08;1.53;;;0.70;;
11964;SDS011;6042;41.326;19.826;2023-01-26T05:40:37;0.87;;;0.70;;
11964;SDS011;6042;41.326;19.826;2023-01-26T05:43:07;0.67;;;0.57;;
11964;SDS011;6042;41.326;19.826;2023-01-26T05:45:54;1.20;;;0.80;;
11964;SDS011;6042;41.326;19.826;2023-01-26T05:48:24;0.60;;;0.60;;
11964;SDS011;6042;41.326;19.826;2023-01-26T05:50:55;0.60;;;0.60;;
11964;SDS011;6042;41.326;19.826;2023-01-26T05:53:25;3.77;;;1.10;;
11964;SDS011;6042;41.326;19.826;2023-01-26T05:55:54;0.93;;;0.83;;
11964;SDS011;6042;41.326;19.826;2023-01-26T05:58:25;1.07;;;0.97;;
11964;SDS011;6042;41.326;19.826;2023-01-26T06:00:54;1.83;;;0.80;;
11964;SDS011;6042;41.326;19.826;2023-01-26T06:03:28;2.00;;;0.60;;
11964;SDS011;6042;41.326;19.826;2023-01-26T06:05:59;3.23;;;1.10;;
11964;SDS011;6042;41.326;19.826;2023-01-26T06:08:35;1.93;;;0.80;;
11964;SDS011;6042;41.326;19.826;2023-01-26T06:11:22;0.97;;;0.80;;
11964;SDS011;6042;41.326;19.826;2023-01-26T06:14:03;0.70;;;0.70;;
11964;SDS011;6042;41.326;19.826;2023-01-26T06:16:32;1.90;;;1.03;;
11964;SDS011;6042;41.326;19.826;2023-01-26T06:19:01;1.33;;;1.00;;
11964;SDS011;6042;41.326;19.826;2023-01-26T06:21:32;8.33;;;1.27;;
11964;SDS011;6042;41.326;19.826;2023-01-26T06:24:02;2.13;;;0.83;;
11964;SDS011;6042;41.326;19.826;2023-01-26T06:26:31;1.10;;;1.00;;
11964;SDS011;6042;41.326;19.826;2023-01-26T06:29:00;2.10;;;1.20;;
11964;SDS011;6042;41.326;19.826;2023-01-26T06:31:32;2.80;;;1.00;;
11964;SDS011;6042;41.326;19.826;2023-01-26T06:34:04;2.37;;;1.00;;
11964;SDS011;6042;41.326;19.826;2023-01-26T06:36:39;0.90;;;0.90;;
11964;SDS011;6042;41.326;19.826;2023-01-26T06:39:15;1.50;;;1.20;;
11964;SDS011;6042;41.326;19.826;2023-01-26T06:41:44;1.30;;;1.20;;
11964;SDS011;6042;41.326;19.826;2023-01-26T06:44:13;3.03;;;1.60;;
11964;SDS011;6042;41.326;19.826;2023-01-26T06:46:43;3.87;;;1.90;;
11964;SDS011;6042;41.326;19.826;2023-01-26T06:49:12;2.60;;;1.87;;
11964;SDS011;6042;41.326;19.826;2023-01-26T06:51:49;4.87;;;2.00;;
11964;SDS011;6042;41.326;19.826;2023-01-26T06:54:35;3.73;;;2.60;;
11964;SDS011;6042;41.326;19.826;2023-01-26T06:57:25;2.77;;;2.17;;
11964;SDS011;6042;41.326;19.826;2023-01-26T06:59:55;4.47;;;1.90;;
11964;SDS011;6042;41.326;19.826;2023-01-26T07:02:43;2.80;;;1.20;;
11964;SDS011;6042;41.326;19.826;2023-01-26T07:05:12;2.37;;;1.23;;
11964;SDS011;6042;41.326;19.826;2023-01-26T07:07:43;2.17;;;1.10;;
11964;SDS011;6042;41.326;19.826;2023-01-26T07:10:12;0.80;;;0.80;;
11964;SDS011;6042;41.326;19.826;2023-01-26T07:12:42;3.43;;;1.10;;
11964;SDS011;6042;41.326;19.826;2023-01-26T07:15:12;6.90;;;1.27;;
11964;SDS011;6042;41.326;19.826;2023-01-26T07:17:41;19.03;;;3.33;;
11964;SDS011;6042;41.326;19.826;2023-01-26T07:20:10;3.10;;;1.37;;
11964;SDS011;6042;41.326;19.826;2023-01-26T07:22:39;5.97;;;1.40;;
11964;SDS011;6042;41.326;19.826;2023-01-26T07:25:09;2.70;;;1.10;;
11964;SDS011;6042;41.326;19.826;2023-01-26T07:27:38;2.60;;;1.10;;
11964;SDS011;6042;41.326;19.826;2023-01-26T07:30:07;4.53;;;1.20;;
11964;SDS011;6042;41.326;19.826;2023-01-26T07:32:37;1.20;;;1.10;;
11964;SDS011;6042;41.326;19.826;2023-01-26T07:35:06;1.20;;;1.10;;
11964;SDS011;6042;41.326;19.826;2023-01-26T07:37:35;5.00;;;1.50;;
11964;SDS011;6042;41.326;19.826;2023-01-26T07:40:05;4.70;;;1.20;;
11964;SDS011;6042;41.326;19.826;2023-01-26T07:42:36;2.60;;;1.07;;
11964;SDS011;6042;41.326;19.826;2023-01-26T07:45:17;2.47;;;1.20;;
11964;SDS011;6042;41.326;19.826;2023-01-26T07:47:45;1.97;;;1.07;;
11964;SDS011;6042;41.326;19.826;2023-01-26T07:50:14;1.57;;;1.40;;
11964;SDS011;6042;41.326;19.826;2023-01-26T07:52:44;1.10;;;0.80;;
11964;SDS011;6042;41.326;19.826;2023-01-26T07:55:13;1.90;;;0.73;;
11964;SDS011;6042;41.326;19.826;2023-01-26T07:57:43;1.83;;;1.27;;
11964;SDS011;6042;41.326;19.826;2023-01-26T08:00:15;2.00;;;1.20;;
11964;SDS011;6042;41.326;19.826;2023-01-26T08:02:48;1.53;;;0.83;;
11964;SDS011;6042;41.326;19.826;2023-01-26T08:05:17;2.57;;;1.00;;
11964;SDS011;6042;41.326;19.826;2023-01-26T08:07:45;2.03;;;0.80;;
11964;SDS011;6042;41.326;19.826;2023-01-26T08:10:15;3.30;;;0.87;;
11964;SDS011;6042;41.326;19.826;2023-01-26T08:12:45;2.43;;;1.00;;
11964;SDS011;6042;41.326;19.826;2023-01-26T08:15:14;6.80;;;5.80;;
11964;SDS011;6042;41.326;19.826;2023-01-26T08:17:43;3.70;;;0.90;;
11964;SDS011;6042;41.326;19.826;2023-01-26T08:20:12;2.10;;;0.93;;
11964;SDS011;6042;41.326;19.826;2023-01-26T08:22:40;11.43;;;5.47;;
11964;SDS011;6042;41.326;19.826;2023-01-26T08:25:09;9.97;;;1.80;;
11964;SDS011;6042;41.326;19.826;2023-01-26T08:27:37;3.80;;;1.40;;
11964;SDS011;6042;41.326;19.826;2023-01-26T08:30:08;6.03;;;1.57;;
11964;SDS011;6042;41.326;19.826;2023-01-26T08:32:38;2.93;;;1.60;;
11964;SDS011;6042;41.326;19.826;2023-01-26T08:35:07;2.83;;;1.50;;
11964;SDS011;6042;41.326;19.826;2023-01-26T08:37:36;1.57;;;0.80;;
11964;SDS011;6042;41.326;19.826;2023-01-26T08:40:05;0.80;;;0.80;;
11964;SDS011;6042;41.326;19.826;2023-01-26T08:42:36;1.80;;;1.03;;
11964;SDS011;6042;41.326;19.826;2023-01-26T08:45:05;2.00;;;0.73;;
11964;SDS011;6042;41.326;19.826;2023-01-26T08:47:36;1.33;;;0.67;;
11964;SDS011;6042;41.326;19.826;2023-01-26T08:50:05;0.80;;;0.80;;
11964;SDS011;6042;41.326;19.826;2023-01-26T08:52:34;3.77;;;0.90;;
11964;SDS011;6042;41.326;19.826;2023-01-26T08:55:03;4.57;;;1.47;;
11964;SDS011;6042;41.326;19.826;2023-01-26T08:57:32;1.53;;;1.40;;
11964;SDS011;6042;41.326;19.826;2023-01-26T09:00:01;1.80;;;1.57;;
11964;SDS011;6042;41.326;19.826;2023-01-26T09:02:32;1.30;;;1.17;;
11964;SDS011;6042;41.326;19.826;2023-01-26T09:05:01;2.23;;;0.93;;
11964;SDS011;6042;41.326;19.826;2023-01-26T09:07:29;4.03;;;1.97;;
11964;SDS011;6042;41.326;19.826;2023-01-26T09:09:58;2.03;;;1.20;;
11964;SDS011;6042;41.326;19.826;2023-01-26T09:12:27;5.90;;;1.17;;
11964;SDS011;6042;41.326;19.826;2023-01-26T09:14:55;1.63;;;1.27;;
11964;SDS011;6042;41.326;19.826;2023-01-26T09:17:24;4.83;;;1.67;;
11964;SDS011;6042;41.326;19.826;2023-01-26T09:19:54;3.43;;;1.97;;
11964;SDS011;6042;41.326;19.826;2023-01-26T09:22:23;2.10;;;1.10;;
11964;SDS011;6042;41.326;19.826;2023-01-26T09:24:52;2.50;;;1.00;;
11964;SDS011;6042;41.326;19.826;2023-01-26T09:27:20;3.17;;;1.70;;
11964;SDS011;6042;41.326;19.826;2023-01-26T09:29:49;5.80;;;1.70;;
11964;SDS011;6042;41.326;19.826;2023-01-26T09:32:19;3.23;;;1.33;;
11964;SDS011;6042;41.326;19.826;2023-01-26T09:34:48;1.70;;;1.60;;
11964;SDS011;6042;41.326;19.826;2023-01-26T09:37:18;1.53;;;1.37;;
11964;SDS011;6042;41.326;19.826;2023-01-26T09:39:46;1.60;;;1.30;;
11964;SDS011;6042;41.326;19.826;2023-01-26T09:42:19;3.50;;;2.10;;
11964;SDS011;6042;41.326;19.826;2023-01-26T09:45:08;8.97;;;2.23;;
11964;SDS011;6042;41.326;19.826;2023-01-26T09:47:58;13.60;;;3.70;;
11964;SDS011;6042;41.326;19.826;2023-01-26T09:50:37;1.87;;;1.70;;
11964;SDS011;6042;41.326;19.826;2023-01-26T09:53:15;1.60;;;1.50;;
11964;SDS011;6042;41.326;19.826;2023-01-26T09:55:49;8.60;;;1.73;;
11964;SDS011;6042;41.326;19.826;2023-01-26T09:58:21;1.37;;;1.20;;
11964;SDS011;6042;41.326;19.826;2023-01-26T10:00:59;3.13;;;0.80;;
11964;SDS011;6042;41.326;19.826;2023-01-26T10:03:32;1.27;;;1.00;;
11964;SDS011;6042;41.326;19.826;2023-01-26T10:06:10;14.77;;;1.73;;
11964;SDS011;6042;41.326;19.826;2023-01-26T10:09:13;0.97;;;0.80;;
11964;SDS011;6042;41.326;19.826;2023-01-26T10:11:44;1.50;;;1.40;;
11964;SDS011;6042;41.326;19.826;2023-01-26T10:14:18;1.17;;;1.10;;
11964;SDS011;6042;41.326;19.826;2023-01-26T10:16:50;1.33;;;1.10;;
11964;SDS011;6042;41.326;19.826;2023-01-26T10:19:22;2.10;;;0.80;;
11964;SDS011;6042;41.326;19.826;2023-01-26T10:22:02;0.90;;;0.80;;
11964;SDS011;6042;41.326;19.826;2023-01-26T10:24:36;1.20;;;0.67;;
11964;SDS011;6042;41.326;19.826;2023-01-26T10:27:09;1.30;;;0.87;;
11964;SDS011;6042;41.326;19.826;2023-01-26T10:29:40;2.50;;;0.90;;
11964;SDS011;6042;41.326;19.826;2023-01-26T10:32:11;1.27;;;0.90;;
11964;SDS011;6042;41.326;19.826;2023-01-26T10:34:41;1.40;;;1.30;;
11964;SDS011;6042;41.326;19.826;2023-01-26T10:37:17;0.90;;;0.90;;
11964;SDS011;6042;41.326;19.826;2023-01-26T10:42:38;3.27;;;1.10;;
11964;SDS011;6042;41.326;19.826;2023-01-26T10:45:22;1.10;;;1.00;;
11964;SDS011;6042;41.326;19.826;2023-01-26T10:48:03;1.03;;;1.00;;
11964;SDS011;6042;41.326;19.826;2023-01-26T10:50:33;1.73;;;1.00;;
11964;SDS011;6042;41.326;19.826;2023-01-26T10:53:03;3.47;;;2.87;;
11964;SDS011;6042;41.326;19.826;2023-01-26T10:55:34;2.47;;;1.30;;
11964;SDS011;6042;41.326;19.826;2023-01-26T10:58:03;3.67;;;1.53;;
11964;SDS011;6042;41.326;19.826;2023-01-26T11:00:32;1.70;;;0.70;;
11964;SDS011;6042;41.326;19.826;2023-01-26T11:03:04;1.13;;;0.70;;
11964;SDS011;6042;41.326;19.826;2023-01-26T11:05:43;3.67;;;0.80;;
11964;SDS011;6042;41.326;19.826;2023-01-26T11:11:00;4.10;;;0.90;;
11964;SDS011;6042;41.326;19.826;2023-01-26T11:13:30;1.10;;;1.00;;
11964;SDS011;6042;41.326;19.826;2023-01-26T11:16:02;2.30;;;1.10;;
11964;SDS011;6042;41.326;19.826;2023-01-26T11:18:39;6.77;;;1.57;;
11964;SDS011;6042;41.326;19.826;2023-01-26T11:21:15;8.43;;;2.33;;
11964;SDS011;6042;41.326;19.826;2023-01-26T11:23:56;1.20;;;1.10;;
11964;SDS011;6042;41.326;19.826;2023-01-26T11:26:44;2.70;;;1.50;;
11964;SDS011;6042;41.326;19.826;2023-01-26T11:29:36;2.37;;;1.43;;
11964;SDS011;6042;41.326;19.826;2023-01-26T11:32:16;1.43;;;1.20;;
11964;SDS011;6042;41.326;19.826;2023-01-26T11:34:52;7.43;;;1.70;;
11964;SDS011;6042;41.326;19.826;2023-01-26T11:37:38;4.50;;;2.20;;
11964;SDS011;6042;41.326;19.826;2023-01-26T11:40:18;1.37;;;1.27;;
11964;SDS011;6042;41.326;19.826;2023-01-26T11:43:01;7.33;;;1.70;;
11964;SDS011;6042;41.326;19.826;2023-01-26T11:45:53;2.63;;;1.93;;
11964;SDS011;6042;41.326;19.826;2023-01-26T11:48:33;2.50;;;1.80;;
11964;SDS011;6042;41.326;19.826;2023-01-26T11:51:06;2.50;;;1.80;;
11964;SDS011;6042;41.326;19.826;2023-01-26T11:53:54;3.57;;;1.77;;
11964;SDS011;6042;41.326;19.826;2023-01-26T11:56:37;2.07;;;1.30;;
11964;SDS011;6042;41.326;19.826;2023-01-26T11:59:18;2.47;;;1.20;;
11964;SDS011;6042;41.326;19.826;2023-01-26T12:01:52;2.97;;;1.30;;
11964;SDS011;6042;41.326;19.826;2023-01-26T12:04:27;7.07;;;1.57;;
11964;SDS011;6042;41.326;19.826;2023-01-26T12:07:02;2.40;;;1.00;;
11964;SDS011;6042;41.326;19.826;2023-01-26T12:09:38;5.53;;;1.73;;
11964;SDS011;6042;41.326;19.826;2023-01-26T12:12:13;3.80;;;1.70;;
11964;SDS011;6042;41.326;19.826;2023-01-26T12:14:48;9.50;;;1.60;;
11964;SDS011;6042;41.326;19.826;2023-01-26T12:17:25;8.57;;;7.63;;
11964;SDS011;6042;41.326;19.826;2023-01-26T12:20:00;6.67;;;2.00;;
11964;SDS011;6042;41.326;19.826;2023-01-26T12:22:38;4.13;;;2.37;;
11964;SDS011;6042;41.326;19.826;2023-01-26T12:25:19;7.17;;;1.30;;
11964;SDS011;6042;41.326;19.826;2023-01-26T12:27:55;2.70;;;2.33;;
11964;SDS011;6042;41.326;19.826;2023-01-26T12:30:33;3.20;;;1.83;;
11964;SDS011;6042;41.326;19.826;2023-01-26T12:33:07;2.83;;;2.00;;
11964;SDS011;6042;41.326;19.826;2023-01-26T12:35:44;2.83;;;1.43;;
11964;SDS011;6042;41.326;19.826;2023-01-26T12:38:27;6.77;;;2.03;;
11964;SDS011;6042;41.326;19.826;2023-01-26T12:41:08;3.60;;;2.27;;
11964;SDS011;6042;41.326;19.826;2023-01-26T12:43:47;8.97;;;8.17;;
11964;SDS011;6042;41.326;19.826;2023-01-26T12:46:23;15.57;;;4.23;;
11964;SDS011;6042;41.326;19.826;2023-01-26T12:48:54;3.70;;;1.90;;
11964;SDS011;6042;41.326;19.826;2023-01-26T12:51:28;6.40;;;3.03;;
11964;SDS011;6042;41.326;19.826;2023-01-26T12:54:03;2.47;;;2.13;;
11964;SDS011;6042;41.326;19.826;2023-01-26T12:56:40;2.03;;;1.70;;
11964;SDS011;6042;41.326;19.826;2023-01-26T12:59:14;4.83;;;2.97;;
11964;SDS011;6042;41.326;19.826;2023-01-26T13:02:18;6.03;;;2.50;;
11964;SDS011;6042;41.326;19.826;2023-01-26T13:04:53;5.13;;;1.60;;
11964;SDS011;6042;41.326;19.826;2023-01-26T13:07:26;5.23;;;1.87;;
11964;SDS011;6042;41.326;19.826;2023-01-26T13:10:07;3.43;;;1.70;;
11964;SDS011;6042;41.326;19.826;2023-01-26T13:12:52;5.43;;;2.43;;
11964;SDS011;6042;41.326;19.826;2023-01-26T13:15:25;4.40;;;2.20;;
11964;SDS011;6042;41.326;19.826;2023-01-26T13:17:58;4.87;;;1.67;;
11964;SDS011;6042;41.326;19.826;2023-01-26T13:29:26;1.70;;;1.33;;
11964;SDS011;6042;41.326;19.826;2023-01-26T13:31:59;1.87;;;1.30;;
11964;SDS011;6042;41.326;19.826;2023-01-26T13:34:32;2.30;;;2.10;;
11964;SDS011;6042;41.326;19.826;2023-01-26T13:37:07;3.83;;;1.40;;
11964;SDS011;6042;41.326;19.826;2023-01-26T13:39:42;1.00;;;0.90;;
11964;SDS011;6042;41.326;19.826;2023-01-26T13:42:15;1.50;;;1.00;;
11964;SDS011;6042;41.326;19.826;2023-01-26T13:44:50;1.30;;;1.17;;
11964;SDS011;6042;41.326;19.826;2023-01-26T13:47:24;2.57;;;1.33;;
11964;SDS011;6042;41.326;19.826;2023-01-26T13:49:59;2.37;;;0.90;;
11964;SDS011;6042;41.326;19.826;2023-01-26T13:52:28;3.07;;;1.43;;
11964;SDS011;6042;41.326;19.826;2023-01-26T13:54:57;3.00;;;1.50;;
11964;SDS011;6042;41.326;19.826;2023-01-26T13:57:28;2.37;;;1.57;;
11964;SDS011;6042;41.326;19.826;2023-01-26T13:59:58;5.40;;;2.73;;
11964;SDS011;6042;41.326;19.826;2023-01-26T14:02:32;7.70;;;2.83;;
11964;SDS011;6042;41.326;19.826;2023-01-26T14:05:06;4.40;;;2.30;;
11964;SDS011;6042;41.326;19.826;2023-01-26T14:07:48;2.53;;;1.70;;
11964;SDS011;6042;41.326;19.826;2023-01-26T14:10:17;3.23;;;1.40;;
11964;SDS011;6042;41.326;19.826;2023-01-26T14:12:48;6.27;;;2.07;;
11964;SDS011;6042;41.326;19.826;2023-01-26T14:15:23;3.53;;;2.07;;
11964;SDS011;6042;41.326;19.826;2023-01-26T14:17:55;3.37;;;1.90;;
11964;SDS011;6042;41.326;19.826;2023-01-26T14:20:27;2.80;;;1.33;;
11964;SDS011;6042;41.326;19.826;2023-01-26T14:23:09;11.83;;;2.17;;
11964;SDS011;6042;41.326;19.826;2023-01-26T14:25:40;4.73;;;1.57;;
11964;SDS011;6042;41.326;19.826;2023-01-26T14:28:13;20.07;;;3.50;;
11964;SDS011;6042;41.326;19.826;2023-01-26T14:30:44;6.20;;;1.83;;
11964;SDS011;6042;41.326;19.826;2023-01-26T14:33:19;3.07;;;1.70;;
11964;SDS011;6042;41.326;19.826;2023-01-26T14:35:55;2.37;;;1.80;;
11964;SDS011;6042;41.326;19.826;2023-01-26T14:38:26;3.20;;;1.90;;
11964;SDS011;6042;41.326;19.826;2023-01-26T14:40:58;3.87;;;2.70;;
11964;SDS011;6042;41.326;19.826;2023-01-26T14:43:30;3.70;;;2.00;;
11964;SDS011;6042;41.326;19.826;2023-01-26T14:46:00;3.77;;;2.17;;
11964;SDS011;6042;41.326;19.826;2023-01-26T14:48:36;2.67;;;2.47;;
11964;SDS011;6042;41.326;19.826;2023-01-26T14:51:12;3.80;;;2.53;;
11964;SDS011;6042;41.326;19.826;2023-01-26T14:53:49;3.20;;;2.20;;
11964;SDS011;6042;41.326;19.826;2023-01-26T14:56:19;2.93;;;2.33;;
11964;SDS011;6042;41.326;19.826;2023-01-26T14:58:50;7.87;;;3.70;;
11964;SDS011;6042;41.326;19.826;2023-01-26T15:01:21;5.53;;;3.60;;
11964;SDS011;6042;41.326;19.826;2023-01-26T15:03:56;8.13;;;3.83;;
11964;SDS011;6042;41.326;19.826;2023-01-26T15:06:29;5.47;;;3.03;;
11964;SDS011;6042;41.326;19.826;2023-01-26T15:09:00;5.23;;;3.80;;
11964;SDS011;6042;41.326;19.826;2023-01-26T15:11:34;3.40;;;2.90;;
11964;SDS011;6042;41.326;19.826;2023-01-26T15:14:32;2.07;;;1.87;;
11964;SDS011;6042;41.326;19.826;2023-01-26T15:17:03;3.20;;;2.27;;
11964;SDS011;6042;41.326;19.826;2023-01-26T15:19:39;3.00;;;2.70;;
11964;SDS011;6042;41.326;19.826;2023-01-26T15:25:02;2.93;;;2.63;;
11964;SDS011;6042;41.326;19.826;2023-01-26T15:27:42;2.90;;;2.50;;
11964;SDS011;6042;41.326;19.826;2023-01-26T15:30:17;5.53;;;2.90;;
11964;SDS011;6042;41.326;19.826;2023-01-26T15:32:50;3.80;;;2.83;;
11964;SDS011;6042;41.326;19.826;2023-01-26T15:35:21;6.83;;;3.13;;
11964;SDS011;6042;41.326;19.826;2023-01-26T15:38:02;9.47;;;3.33;;
11964;SDS011;6042;41.326;19.826;2023-01-26T15:40:32;4.90;;;3.17;;
11964;SDS011;6042;41.326;19.826;2023-01-26T15:45:49;6.73;;;4.43;;
11964;SDS011;6042;41.326;19.826;2023-01-26T15:48:20;6.43;;;4.00;;
11964;SDS011;6042;41.326;19.826;2023-01-26T15:50:49;7.17;;;4.03;;